createdAt,value
2023-05-02T00:01:58.275Z,25.17
2023-05-02T00:04:26.103Z,27.10
2023-05-02T00:06:54.187Z,21.20
2023-05-02T00:09:22.075Z,21.52
2023-05-02T00:11:49.734Z,23.98
2023-05-02T00:14:17.464Z,23.80
2023-05-02T00:16:45.088Z,20.50
2023-05-02T00:19:15.677Z,20.60
2023-05-02T00:21:43.625Z,23.13
2023-05-02T00:24:11.220Z,20.38
2023-05-02T00:26:38.821Z,21.08
2023-05-02T00:29:08.146Z,23.15
2023-05-02T00:31:36.378Z,21.00
2023-05-02T00:34:04.978Z,19.15
2023-05-02T00:36:33.037Z,21.25
2023-05-02T00:39:01.489Z,19.65
2023-05-02T00:43:57.988Z,22.85
2023-05-02T00:46:26.152Z,19.77
2023-05-02T00:51:21.427Z,19.50
2023-05-02T00:53:49.755Z,20.58
2023-05-02T00:56:17.284Z,19.38
2023-05-02T00:58:47.229Z,23.35
2023-05-02T01:01:33.534Z,23.05
2023-05-02T01:04:13.374Z,20.15
2023-05-02T01:07:05.342Z,21.67
2023-05-02T01:10:15.326Z,19.60
2023-05-02T01:12:49.202Z,17.92
2023-05-02T01:15:21.100Z,19.60
2023-05-02T01:17:51.109Z,19.35
2023-05-02T01:20:21.647Z,17.67
2023-05-02T01:22:49.950Z,20.98
2023-05-02T01:25:29.948Z,20.90
2023-05-02T01:28:05.414Z,22.25
2023-05-02T01:30:35.865Z,18.35
2023-05-02T01:33:05.731Z,20.23
2023-05-02T01:35:35.806Z,18.63
2023-05-02T01:38:04.848Z,22.33
2023-05-02T01:40:35.131Z,20.15
2023-05-02T01:43:05.303Z,21.42
2023-05-02T01:45:35.270Z,20.23
2023-05-02T01:48:05.547Z,20.08
2023-05-02T01:50:34.483Z,21.45
2023-05-02T01:53:04.885Z,20.25
2023-05-02T01:55:36.242Z,22.17
2023-05-02T01:58:05.988Z,24.27
2023-05-02T02:00:34.548Z,24.55
2023-05-02T02:03:04.896Z,30.17
2023-05-02T02:05:34.657Z,28.20
2023-05-02T02:08:03.830Z,25.60
2023-05-02T02:10:40.373Z,28.02
2023-05-02T02:13:19.674Z,26.80
2023-05-02T02:15:50.409Z,25.25
2023-05-02T02:18:25.252Z,25.23
2023-05-02T02:20:54.012Z,24.55
2023-05-02T02:23:25.920Z,27.13
2023-05-02T02:25:55.717Z,28.48
2023-05-02T02:28:23.670Z,25.35
2023-05-02T02:30:51.339Z,27.67
2023-05-02T02:33:20.187Z,33.53
2023-05-02T02:36:01.449Z,35.47
2023-05-02T02:38:48.222Z,36.53
2023-05-02T02:41:28.157Z,36.72
2023-05-02T02:44:18.801Z,37.40
2023-05-02T02:46:46.948Z,37.22
2023-05-02T02:49:33.330Z,38.30
2023-05-02T02:52:06.913Z,35.47
2023-05-02T02:55:15.983Z,34.70
2023-05-02T02:57:58.080Z,37.58
2023-05-02T03:00:28.504Z,39.60
2023-05-02T03:02:57.717Z,37.35
2023-05-02T03:05:26.068Z,38.38
2023-05-02T03:07:53.718Z,32.20
2023-05-02T03:10:24.170Z,32.35
2023-05-02T03:12:55.594Z,32.30
2023-05-02T03:15:41.077Z,34.50
2023-05-02T03:18:10.580Z,33.20
2023-05-02T03:20:38.272Z,38.53
2023-05-02T03:23:06.014Z,35.65
2023-05-02T03:25:33.985Z,37.15
2023-05-02T03:28:01.596Z,30.85
2023-05-02T03:32:58.273Z,38.47
2023-05-02T03:35:25.957Z,37.95
2023-05-02T03:37:54.662Z,35.40
2023-05-02T03:40:22.579Z,36.47
2023-05-02T03:42:50.294Z,35.42
2023-05-02T03:45:27.048Z,31.77
2023-05-02T03:47:54.874Z,31.38
2023-05-02T03:50:23.932Z,34.40
2023-05-02T03:52:53.552Z,34.63
2023-05-02T03:55:29.596Z,33.47
2023-05-02T03:57:58.174Z,33.47
2023-05-02T04:00:26.142Z,35.53
2023-05-02T04:03:03.586Z,34.25
2023-05-02T04:05:33.445Z,37.38
2023-05-02T04:08:02.506Z,32.13
2023-05-02T04:10:31.792Z,39.42
2023-05-02T04:13:03.520Z,36.55
2023-05-02T04:15:32.294Z,36.00
2023-05-02T04:18:00.481Z,32.90
2023-05-02T04:20:28.849Z,46.60
2023-05-02T04:22:56.700Z,38.83
2023-05-02T04:25:24.388Z,37.78
2023-05-02T04:27:54.613Z,41.40
2023-05-02T04:30:24.338Z,34.15
2023-05-02T04:32:59.693Z,38.85
2023-05-02T04:35:32.487Z,36.88
2023-05-02T04:38:00.266Z,40.20
2023-05-02T04:40:28.907Z,33.45
2023-05-02T04:43:03.002Z,35.22
2023-05-02T04:45:37.731Z,35.50
2023-05-02T04:48:08.975Z,35.95
2023-05-02T04:50:36.604Z,37.88
2023-05-02T04:53:04.576Z,33.63
2023-05-02T04:55:33.998Z,32.20
2023-05-02T04:58:02.201Z,41.22
2023-05-02T05:00:30.972Z,33.67
2023-05-02T05:03:00.172Z,35.40
2023-05-02T05:05:29.625Z,35.58
2023-05-02T05:07:57.459Z,33.35
2023-05-02T05:10:27.993Z,34.25
2023-05-02T05:15:25.577Z,38.65
2023-05-02T05:17:57.761Z,36.47
2023-05-02T05:20:25.681Z,34.63
2023-05-02T05:22:56.385Z,37.45
2023-05-02T05:25:27.616Z,36.95
2023-05-02T05:27:56.333Z,33.85
2023-05-02T05:30:25.841Z,33.67
2023-05-02T05:32:54.296Z,35.60
2023-05-02T05:40:18.946Z,31.80
2023-05-02T05:42:51.582Z,29.67
2023-05-02T05:45:25.488Z,32.95
2023-05-02T05:47:55.963Z,36.78
2023-05-02T05:50:26.112Z,33.05
2023-05-02T05:52:53.785Z,31.13
2023-05-02T05:55:21.961Z,31.00
2023-05-02T05:57:49.944Z,27.48
2023-05-02T06:00:17.847Z,31.48
2023-05-02T06:05:10.829Z,25.23
2023-05-02T06:07:38.688Z,27.02
2023-05-02T06:10:06.634Z,34.88
2023-05-02T06:12:36.226Z,27.30
2023-05-02T06:15:04.362Z,27.73
2023-05-02T06:20:00.496Z,23.83
2023-05-02T06:22:28.716Z,23.05
2023-05-02T06:24:56.331Z,20.02
2023-05-02T06:27:24.188Z,23.80
2023-05-02T06:32:20.431Z,30.42
2023-05-02T06:34:48.047Z,27.55
2023-05-02T06:37:15.732Z,22.83
2023-05-02T06:39:43.391Z,27.25
2023-05-02T06:42:11.558Z,15.20
2023-05-02T06:44:39.297Z,18.25
2023-05-02T06:47:07.819Z,23.05
2023-05-02T06:49:35.981Z,22.80
2023-05-02T06:52:03.822Z,22.73
2023-05-02T06:54:31.412Z,25.35
2023-05-02T06:57:00.413Z,22.10
2023-05-02T06:59:28.251Z,23.75
2023-05-02T07:01:56.330Z,20.70
2023-05-02T07:04:23.858Z,24.35
2023-05-02T07:06:51.651Z,20.00
2023-05-02T07:09:19.704Z,21.40
2023-05-02T07:11:47.239Z,21.52
2023-05-02T07:14:14.785Z,23.40
2023-05-02T07:16:43.239Z,17.33
2023-05-02T07:19:10.897Z,35.70
2023-05-02T07:21:38.631Z,20.33
2023-05-02T07:24:06.284Z,21.35
2023-05-02T07:26:33.987Z,22.30
2023-05-02T07:29:01.769Z,23.23
2023-05-02T07:31:29.824Z,25.60
2023-05-02T07:36:24.851Z,23.08
2023-05-02T07:38:52.789Z,25.50
2023-05-02T07:41:20.477Z,25.23
2023-05-02T07:43:48.126Z,27.88
2023-05-02T07:46:16.355Z,20.60
2023-05-02T07:48:44.402Z,24.75
2023-05-02T07:51:12.611Z,22.23
2023-05-02T07:56:08.844Z,31.77
2023-05-02T07:58:37.463Z,28.67
2023-05-02T08:01:05.434Z,29.08
2023-05-02T08:06:02.336Z,22.95
2023-05-02T08:08:30.313Z,24.98
2023-05-02T08:10:58.277Z,20.10
2023-05-02T08:13:27.453Z,18.70
2023-05-02T08:15:58.601Z,19.27
2023-05-02T08:18:26.750Z,18.00
2023-05-02T08:20:57.854Z,16.38
2023-05-02T08:23:25.601Z,10.27
2023-05-02T08:25:53.763Z,12.90
2023-05-02T08:30:49.553Z,16.58
2023-05-02T08:33:17.349Z,17.55
2023-05-02T08:35:45.354Z,18.52
2023-05-02T08:38:13.088Z,14.88
2023-05-02T08:40:42.338Z,21.23
2023-05-02T08:43:12.120Z,16.38
2023-05-02T08:45:42.310Z,20.60
2023-05-02T08:48:12.299Z,13.82
2023-05-02T08:50:43.592Z,14.20
2023-05-02T08:53:13.670Z,15.02
2023-05-02T08:55:43.034Z,16.40
2023-05-02T08:58:13.938Z,15.60
2023-05-02T09:00:45.922Z,15.82
2023-05-02T09:03:23.732Z,14.40
2023-05-02T09:05:55.554Z,17.20
2023-05-02T09:08:24.668Z,18.10
2023-05-02T09:10:52.324Z,14.23
2023-05-02T09:13:33.040Z,16.55
2023-05-02T09:16:03.217Z,15.32
2023-05-02T09:18:34.939Z,23.67
2023-05-02T09:21:10.566Z,16.88
2023-05-02T09:23:40.834Z,19.23
2023-05-02T09:26:33.292Z,23.48
2023-05-02T09:29:03.536Z,17.80
2023-05-02T09:34:14.697Z,20.42
2023-05-02T09:36:49.070Z,16.95
2023-05-02T09:39:23.773Z,19.30
2023-05-02T09:41:54.099Z,15.07
2023-05-02T09:44:29.564Z,19.25
2023-05-02T09:47:02.302Z,15.75
2023-05-02T09:49:47.008Z,16.27
2023-05-02T09:52:16.279Z,17.55
2023-05-02T09:54:46.599Z,15.02
2023-05-02T09:57:14.604Z,20.55
2023-05-02T09:59:52.888Z,20.05
2023-05-02T10:02:22.151Z,15.52
2023-05-02T10:04:51.414Z,16.08
2023-05-02T10:07:19.459Z,15.93
2023-05-02T10:12:21.957Z,16.98
2023-05-02T10:14:55.977Z,13.18
2023-05-02T10:17:30.201Z,19.50
2023-05-02T10:20:03.908Z,16.10
2023-05-02T10:22:34.231Z,12.63
2023-05-02T10:25:03.918Z,18.38
2023-05-02T10:27:33.914Z,18.10
2023-05-02T10:30:05.467Z,13.57
2023-05-02T10:32:34.968Z,14.73
2023-05-02T10:35:05.585Z,13.65
2023-05-02T10:37:36.276Z,16.10
2023-05-02T10:40:06.614Z,11.13
2023-05-02T10:42:40.762Z,11.90
2023-05-02T10:45:32.894Z,13.82
2023-05-02T10:48:25.093Z,13.68
2023-05-02T10:51:01.904Z,10.32
2023-05-02T10:53:37.432Z,11.80
2023-05-02T10:56:21.285Z,13.27
2023-05-02T10:58:51.366Z,12.00
2023-05-02T11:01:26.558Z,15.25
2023-05-02T11:06:59.804Z,12.18
2023-05-02T11:09:27.411Z,9.93
2023-05-02T11:11:58.160Z,12.02
2023-05-02T11:14:30.982Z,12.20
2023-05-02T11:16:59.140Z,14.70
2023-05-02T11:19:31.574Z,10.88
2023-05-02T11:22:18.182Z,12.20
2023-05-02T11:24:48.139Z,12.37
2023-05-02T11:27:38.517Z,10.90
2023-05-02T11:30:09.156Z,10.75
2023-05-02T11:32:46.755Z,11.15
2023-05-02T11:35:19.512Z,13.05
2023-05-02T11:38:05.009Z,10.10
2023-05-02T11:40:33.305Z,9.50
2023-05-02T11:43:01.472Z,10.73
2023-05-02T11:45:37.459Z,10.15
2023-05-02T11:48:09.240Z,11.60
2023-05-02T11:50:49.802Z,12.88
2023-05-02T11:53:23.478Z,13.00
2023-05-02T11:55:57.582Z,8.55
2023-05-02T11:58:32.432Z,10.55
2023-05-02T12:01:15.557Z,9.13
2023-05-02T12:03:43.968Z,11.10
2023-05-02T12:06:14.654Z,9.23
2023-05-02T12:08:44.815Z,11.00
2023-05-02T12:11:16.347Z,9.63
2023-05-02T12:13:46.863Z,7.70
2023-05-02T12:16:15.396Z,8.98
2023-05-02T12:18:43.342Z,7.18
2023-05-02T12:21:11.657Z,7.78
2023-05-02T12:23:42.548Z,10.13
2023-05-02T12:26:31.822Z,9.38
2023-05-02T12:28:59.555Z,21.20
2023-05-02T12:31:31.618Z,9.93
2023-05-02T12:34:00.604Z,14.18
2023-05-02T12:36:29.590Z,8.18
2023-05-02T12:38:59.717Z,8.60
2023-05-02T12:41:35.187Z,9.75
2023-05-02T12:44:03.970Z,9.52
2023-05-02T12:46:32.745Z,9.45
2023-05-02T12:49:09.546Z,6.28
2023-05-02T12:51:38.633Z,5.55
2023-05-02T12:54:07.150Z,6.95
2023-05-02T12:56:43.660Z,10.10
2023-05-02T12:59:30.506Z,8.20
2023-05-02T13:01:59.558Z,7.95
2023-05-02T13:04:41.644Z,8.60
2023-05-02T13:07:09.909Z,9.38
2023-05-02T13:09:39.184Z,7.30
2023-05-02T13:12:07.100Z,8.10
2023-05-02T13:14:34.787Z,9.32
2023-05-02T13:19:31.549Z,6.80
2023-05-02T13:21:59.728Z,5.97
2023-05-02T13:24:27.457Z,10.25
2023-05-02T13:26:55.046Z,11.90
2023-05-02T13:29:22.680Z,5.93
2023-05-02T13:31:50.516Z,9.93
2023-05-02T13:34:19.476Z,6.57
2023-05-02T13:36:48.320Z,7.63
2023-05-02T13:39:16.004Z,9.13
2023-05-02T13:49:07.105Z,7.90
2023-05-02T13:51:34.813Z,7.18
2023-05-02T13:54:03.027Z,7.13
2023-05-02T13:56:30.838Z,7.60
2023-05-02T13:58:59.663Z,8.23
2023-05-02T14:01:28.380Z,8.18
2023-05-02T14:03:59.388Z,7.28
2023-05-02T14:06:27.578Z,9.15
2023-05-02T14:08:55.428Z,8.30
2023-05-02T14:13:50.592Z,7.57
2023-05-02T14:18:47.193Z,10.45
2023-05-02T14:21:15.420Z,8.35
2023-05-02T14:23:43.286Z,10.52
2023-05-02T14:28:40.244Z,7.05
2023-05-02T14:31:08.198Z,9.02
2023-05-02T14:33:37.786Z,10.88
2023-05-02T14:36:06.922Z,8.05
2023-05-02T14:38:36.065Z,10.77
2023-05-02T14:41:06.171Z,7.18
2023-05-02T14:43:33.890Z,8.95
2023-05-02T14:46:02.733Z,7.00
2023-05-02T14:48:31.207Z,8.65
2023-05-02T14:51:03.693Z,7.38
2023-05-02T14:53:31.920Z,8.48
2023-05-02T14:55:59.475Z,9.45
2023-05-02T14:58:27.071Z,10.45
2023-05-02T15:00:54.821Z,9.20
2023-05-02T15:03:22.602Z,15.35
2023-05-02T15:10:45.621Z,10.35
2023-05-02T15:13:14.433Z,9.25
2023-05-02T15:15:42.025Z,12.82
2023-05-02T15:20:39.183Z,10.40
2023-05-02T15:23:06.828Z,8.75
2023-05-02T15:25:35.596Z,7.57
2023-05-02T15:28:04.711Z,10.82
2023-05-02T15:30:32.387Z,11.80
2023-05-02T15:35:27.418Z,8.90
2023-05-02T15:37:55.830Z,10.25
2023-05-02T15:40:26.023Z,8.73
2023-05-02T15:42:53.635Z,11.20
2023-05-02T15:45:22.634Z,10.63
2023-05-02T15:50:21.731Z,10.68
2023-05-02T15:52:49.413Z,11.13
2023-05-02T15:55:17.262Z,9.52
2023-05-02T15:57:45.220Z,11.18
2023-05-02T16:00:16.983Z,12.13
2023-05-02T16:02:44.727Z,11.02
2023-05-02T16:05:13.777Z,8.38
2023-05-02T16:07:41.710Z,15.13
2023-05-02T16:10:09.971Z,11.07
2023-05-02T16:12:37.673Z,10.93
2023-05-02T16:17:33.919Z,9.93
2023-05-02T16:20:01.790Z,9.90
2023-05-02T16:22:30.844Z,10.60
2023-05-02T16:24:58.593Z,9.85
2023-05-02T16:27:27.127Z,10.52
2023-05-02T16:30:32.659Z,12.95
2023-05-02T16:33:00.674Z,9.50
2023-05-02T16:35:29.774Z,10.45
2023-05-02T16:37:57.506Z,9.85
2023-05-02T16:40:27.429Z,11.80
2023-05-02T16:42:56.291Z,9.45
2023-05-02T16:45:24.076Z,16.10
2023-05-02T16:50:20.394Z,10.65
2023-05-02T16:52:48.798Z,11.30
2023-05-02T16:55:17.993Z,11.73
2023-05-02T16:57:45.691Z,10.85
2023-05-02T17:02:44.283Z,11.90
2023-05-02T17:05:12.862Z,9.88
2023-05-02T17:07:42.144Z,10.40
2023-05-02T17:10:10.517Z,13.98
2023-05-02T17:12:38.286Z,9.77
2023-05-02T17:15:07.518Z,11.10
2023-05-02T17:17:36.682Z,12.50
2023-05-02T17:20:07.302Z,12.98
2023-05-02T17:22:38.251Z,11.65
2023-05-02T17:25:06.577Z,11.15
2023-05-02T17:27:34.324Z,12.88
2023-05-02T17:30:02.316Z,9.77
2023-05-02T17:32:36.305Z,9.65
2023-05-02T17:35:05.194Z,12.73
2023-05-02T17:37:33.521Z,10.45
2023-05-02T17:40:02.317Z,13.88
2023-05-02T17:42:30.109Z,11.68
2023-05-02T17:44:58.979Z,10.65
2023-05-02T17:47:26.708Z,12.23
2023-05-02T17:49:54.639Z,14.40
2023-05-02T17:52:24.544Z,14.32
2023-05-02T17:54:54.216Z,12.88
2023-05-02T17:57:22.090Z,17.30
2023-05-02T18:02:22.439Z,13.75
2023-05-02T18:04:50.090Z,10.15
2023-05-02T18:07:23.740Z,11.98
2023-05-02T18:09:52.659Z,11.98
2023-05-02T18:12:20.967Z,14.30
2023-05-02T18:14:49.318Z,15.57
2023-05-02T18:17:20.429Z,11.45
2023-05-02T18:19:50.651Z,13.25
2023-05-02T18:22:21.329Z,14.32
2023-05-02T18:24:49.992Z,14.07
2023-05-02T18:27:17.874Z,12.52
2023-05-02T18:29:46.983Z,9.45
2023-05-02T18:32:17.168Z,12.25
2023-05-02T18:34:45.077Z,15.45
2023-05-02T18:37:12.917Z,12.88
2023-05-02T18:39:40.683Z,8.23
2023-05-02T18:42:08.768Z,11.27
2023-05-02T18:47:04.541Z,12.07
2023-05-02T18:49:33.474Z,13.10
2023-05-02T18:52:03.641Z,12.07
2023-05-02T18:54:33.511Z,13.57
2023-05-02T18:57:02.393Z,12.88
2023-05-02T18:59:30.309Z,12.27
2023-05-02T19:02:01.004Z,10.60
2023-05-02T19:04:31.907Z,15.13
2023-05-02T19:07:00.877Z,10.60
2023-05-02T19:09:31.152Z,11.25
2023-05-02T19:12:03.616Z,11.05
2023-05-02T19:14:33.502Z,13.93
2023-05-02T19:17:05.727Z,11.25
2023-05-02T19:19:34.340Z,10.93
2023-05-02T19:22:03.013Z,10.50
2023-05-02T19:24:30.762Z,9.57
2023-05-02T19:26:59.225Z,13.43
2023-05-02T19:29:27.454Z,15.35
2023-05-02T19:31:57.009Z,12.90
2023-05-02T19:34:24.773Z,11.68
2023-05-02T19:36:55.488Z,14.80
2023-05-02T19:39:26.496Z,16.90
2023-05-02T19:42:01.208Z,10.25
2023-05-02T19:44:30.646Z,15.10
2023-05-02T19:50:16.415Z,15.15
2023-05-02T19:53:21.810Z,14.50
2023-05-02T19:55:50.980Z,17.10
2023-05-02T19:58:20.440Z,12.45
2023-05-02T20:03:35.953Z,17.38
2023-05-02T20:06:04.147Z,15.52
2023-05-02T20:08:32.152Z,18.02
2023-05-02T20:11:00.054Z,12.65
2023-05-02T20:13:28.914Z,13.07
2023-05-02T20:15:57.452Z,17.13
2023-05-02T20:18:25.618Z,17.58
2023-05-02T20:20:53.469Z,13.88
2023-05-02T20:23:21.153Z,14.90
2023-05-02T20:25:48.809Z,18.63
2023-05-02T20:28:16.483Z,15.80
2023-05-02T20:30:44.227Z,18.00
2023-05-02T20:33:16.034Z,19.00
2023-05-02T20:35:45.322Z,17.30
2023-05-02T20:38:12.895Z,22.25
2023-05-02T20:40:42.825Z,21.55
2023-05-02T20:43:12.069Z,16.60
2023-05-02T20:45:40.233Z,19.50
2023-05-02T20:48:08.406Z,21.48
2023-05-02T20:50:36.377Z,19.75
2023-05-02T20:53:05.176Z,15.55
2023-05-02T20:55:35.890Z,14.30
2023-05-02T20:58:12.759Z,16.25
2023-05-02T21:00:41.703Z,18.75
2023-05-02T21:03:09.389Z,16.75
2023-05-02T21:05:37.134Z,19.90
2023-05-02T21:08:04.808Z,17.25
2023-05-02T21:10:32.533Z,20.17
2023-05-02T21:13:00.372Z,21.33
2023-05-02T21:15:28.286Z,20.80
2023-05-02T21:18:05.474Z,21.20
2023-05-02T21:20:33.855Z,15.02
2023-05-02T21:23:01.526Z,20.98
2023-05-02T21:25:29.429Z,23.02
2023-05-02T21:27:58.670Z,23.75
2023-05-02T21:30:26.318Z,21.15
2023-05-02T21:32:54.129Z,16.90
2023-05-02T21:37:49.779Z,20.55
2023-05-02T21:40:20.606Z,19.80
2023-05-02T21:42:48.528Z,20.48
2023-05-02T21:45:16.407Z,20.88
2023-05-02T21:47:44.094Z,21.67
2023-05-02T21:50:11.742Z,17.73
2023-05-02T21:52:39.818Z,17.23
2023-05-02T21:55:07.890Z,18.13
2023-05-02T21:57:36.716Z,19.80
2023-05-02T22:00:06.082Z,23.30
2023-05-02T22:02:33.999Z,19.52
2023-05-02T22:07:30.075Z,19.10
2023-05-02T22:09:58.457Z,19.48
2023-05-02T22:12:27.423Z,26.80
2023-05-02T22:14:57.629Z,22.80
2023-05-02T22:17:26.602Z,21.05
2023-05-02T22:22:22.428Z,20.33
2023-05-02T22:24:50.021Z,21.30
2023-05-02T22:27:17.641Z,20.58
2023-05-02T22:29:48.379Z,21.83
2023-05-02T22:32:16.237Z,22.02
2023-05-02T22:34:43.904Z,22.85
2023-05-02T22:37:12.646Z,22.58
2023-05-02T22:39:40.841Z,22.25
2023-05-02T22:44:50.464Z,22.55
2023-05-02T22:47:22.114Z,23.98
2023-05-02T22:49:51.091Z,21.33
2023-05-02T22:52:20.721Z,22.85
2023-05-02T22:54:48.965Z,17.80
2023-05-02T22:57:16.605Z,22.48
2023-05-02T22:59:44.205Z,28.55
2023-05-02T23:02:12.483Z,22.17
2023-05-02T23:04:40.123Z,24.95
2023-05-02T23:07:07.809Z,24.02
2023-05-02T23:09:36.029Z,26.88
2023-05-02T23:14:33.744Z,23.02
2023-05-02T23:17:03.550Z,23.25
2023-05-02T23:19:31.723Z,27.13
2023-05-02T23:21:59.842Z,30.70
2023-05-02T23:29:26.176Z,27.88
2023-05-02T23:31:54.667Z,23.23
2023-05-02T23:34:22.712Z,25.73
2023-05-02T23:36:52.291Z,23.05
2023-05-02T23:39:20.133Z,21.55
2023-05-02T23:41:47.866Z,30.33
2023-05-02T23:44:15.452Z,30.42
2023-05-02T23:46:43.164Z,24.63
2023-05-02T23:49:11.071Z,26.42
2023-05-02T23:51:39.170Z,26.48
2023-05-02T23:54:07.692Z,23.15
2023-05-02T23:56:35.572Z,29.25
2023-05-02T23:59:03.973Z,26.45
